createdAt,value
2023-04-23T00:02:16.833Z,41.53
2023-04-23T00:04:52.928Z,41.60
2023-04-23T00:07:21.674Z,41.48
2023-04-23T00:09:50.215Z,41.34
2023-04-23T00:12:17.597Z,41.47
2023-04-23T00:14:44.495Z,41.85
2023-04-23T00:17:11.549Z,41.58
2023-04-23T00:19:38.292Z,41.82
2023-04-23T00:22:06.169Z,41.73
2023-04-23T00:24:36.132Z,41.79
2023-04-23T00:27:03.359Z,41.91
2023-04-23T00:29:30.232Z,41.79
2023-04-23T00:31:57.595Z,41.72
2023-04-23T00:34:24.459Z,41.85
2023-04-23T00:36:51.524Z,41.58
2023-04-23T00:39:18.273Z,41.68
2023-04-23T00:41:45.431Z,41.49
2023-04-23T00:44:13.213Z,41.75
2023-04-23T00:46:40.413Z,41.63
2023-04-23T00:49:07.172Z,41.72
2023-04-23T00:51:34.400Z,41.81
2023-04-23T00:54:01.145Z,41.80
2023-04-23T00:56:28.416Z,42.03
2023-04-23T00:58:55.301Z,41.90
2023-04-23T01:01:22.422Z,41.89
2023-04-23T01:03:49.548Z,41.51
2023-04-23T01:06:16.906Z,41.71
2023-04-23T01:08:43.776Z,41.73
2023-04-23T01:11:11.390Z,42.02
2023-04-23T01:13:38.107Z,41.97
2023-04-23T01:16:05.454Z,41.90
2023-04-23T01:18:32.490Z,41.93
2023-04-23T01:20:59.663Z,41.98
2023-04-23T01:23:27.258Z,41.82
2023-04-23T01:25:54.682Z,41.98
2023-04-23T01:28:21.599Z,42.22
2023-04-23T01:30:48.661Z,42.12
2023-04-23T01:33:15.520Z,41.81
2023-04-23T01:35:42.537Z,41.74
2023-04-23T01:38:10.550Z,42.00
2023-04-23T01:40:38.026Z,41.93
2023-04-23T01:43:06.333Z,42.22
2023-04-23T01:45:33.430Z,42.38
2023-04-23T01:48:00.791Z,42.18
2023-04-23T01:50:29.927Z,42.22
2023-04-23T01:52:56.805Z,41.87
2023-04-23T01:55:23.976Z,42.02
2023-04-23T01:57:51.655Z,42.24
2023-04-23T02:00:18.967Z,42.13
2023-04-23T02:02:46.097Z,42.09
2023-04-23T02:05:18.674Z,41.81
2023-04-23T02:07:46.465Z,42.00
2023-04-23T02:10:13.597Z,42.11
2023-04-23T02:12:40.460Z,42.12
2023-04-23T02:15:08.035Z,42.12
2023-04-23T02:17:35.465Z,42.06
2023-04-23T02:20:02.860Z,42.05
2023-04-23T02:22:29.844Z,42.02
2023-04-23T02:24:56.936Z,42.11
2023-04-23T02:27:23.859Z,42.29
2023-04-23T02:29:51.851Z,41.95
2023-04-23T02:32:18.634Z,41.89
2023-04-23T02:34:46.363Z,41.95
2023-04-23T02:37:13.103Z,42.12
2023-04-23T02:39:40.227Z,42.08
2023-04-23T02:42:07.266Z,42.16
2023-04-23T02:44:34.385Z,42.14
2023-04-23T02:47:01.339Z,42.19
2023-04-23T02:49:28.473Z,42.08
2023-04-23T02:51:55.314Z,42.02
2023-04-23T02:54:22.350Z,42.05
2023-04-23T02:56:49.153Z,42.15
2023-04-23T02:59:16.267Z,42.03
2023-04-23T03:01:43.101Z,42.05
2023-04-23T03:04:10.412Z,42.29
2023-04-23T03:06:37.451Z,42.33
2023-04-23T03:09:05.002Z,42.04
2023-04-23T03:11:31.815Z,42.15
2023-04-23T03:13:58.878Z,42.10
2023-04-23T03:16:28.213Z,42.25
2023-04-23T03:18:55.704Z,42.17
2023-04-23T03:21:22.648Z,42.16
2023-04-23T03:23:49.769Z,42.03
2023-04-23T03:26:16.536Z,42.55
2023-04-23T03:28:43.592Z,42.31
2023-04-23T03:31:10.396Z,41.96
2023-04-23T03:33:37.514Z,42.17
2023-04-23T03:36:04.661Z,42.16
2023-04-23T03:38:31.804Z,41.80
2023-04-23T03:40:58.569Z,41.91
2023-04-23T03:43:25.725Z,42.22
2023-04-23T03:45:52.481Z,42.41
2023-04-23T03:48:20.826Z,42.33
2023-04-23T03:50:47.667Z,42.12
2023-04-23T03:53:14.727Z,42.25
2023-04-23T03:55:41.526Z,42.37
2023-04-23T03:58:09.709Z,42.42
2023-04-23T04:00:36.495Z,42.32
2023-04-23T04:03:04.470Z,42.38
2023-04-23T04:05:31.575Z,42.22
2023-04-23T04:07:58.686Z,42.29
2023-04-23T04:10:25.419Z,42.33
2023-04-23T04:12:52.514Z,42.08
2023-04-23T04:15:20.776Z,42.19
2023-04-23T04:17:47.906Z,42.26
2023-04-23T04:20:14.721Z,42.38
2023-04-23T04:22:41.883Z,42.23
2023-04-23T04:25:08.879Z,42.28
2023-04-23T04:27:36.021Z,42.14
2023-04-23T04:30:03.104Z,42.31
2023-04-23T04:32:30.173Z,41.98
2023-04-23T04:34:57.209Z,42.24
2023-04-23T04:37:24.801Z,42.21
2023-04-23T04:39:51.537Z,42.22
2023-04-23T04:42:19.178Z,42.19
2023-04-23T04:44:46.116Z,42.39
2023-04-23T04:47:13.605Z,42.32
2023-04-23T04:49:40.454Z,42.25
2023-04-23T04:52:07.581Z,42.30
2023-04-23T04:54:34.317Z,42.29
2023-04-23T04:57:02.410Z,41.95
2023-04-23T04:59:29.370Z,42.13
2023-04-23T05:01:56.773Z,42.15
2023-04-23T05:04:23.718Z,42.47
2023-04-23T05:06:50.934Z,42.22
2023-04-23T05:09:17.705Z,42.37
2023-04-23T05:11:44.796Z,42.41
2023-04-23T05:14:11.726Z,42.68
2023-04-23T05:16:38.785Z,42.64
2023-04-23T05:19:06.451Z,42.41
2023-04-23T05:21:33.541Z,42.00
2023-04-23T05:24:00.389Z,41.44
2023-04-23T05:26:27.536Z,41.62
2023-04-23T05:28:54.268Z,41.12
2023-04-23T05:31:21.662Z,41.32
2023-04-23T05:33:50.570Z,41.24
2023-04-23T05:36:18.471Z,41.23
2023-04-23T05:38:45.293Z,41.33
2023-04-23T05:41:12.356Z,41.10
2023-04-23T05:43:39.128Z,40.98
2023-04-23T05:46:07.709Z,40.83
2023-04-23T05:48:34.815Z,40.88
2023-04-23T05:51:02.034Z,40.96
2023-04-23T05:53:28.941Z,40.68
2023-04-23T05:55:56.106Z,40.84
2023-04-23T05:58:23.583Z,41.01
2023-04-23T06:00:50.654Z,40.73
2023-04-23T06:03:17.643Z,40.82
2023-04-23T06:05:45.302Z,40.55
2023-04-23T06:08:12.118Z,40.80
2023-04-23T06:10:39.179Z,40.80
2023-04-23T06:13:06.091Z,40.51
2023-04-23T06:15:33.159Z,40.58
2023-04-23T06:18:00.057Z,40.56
2023-04-23T06:20:27.302Z,40.50
2023-04-23T06:22:54.107Z,40.59
2023-04-23T06:25:21.236Z,40.41
2023-04-23T06:27:48.010Z,40.20
2023-04-23T06:30:15.160Z,40.28
2023-04-23T06:32:41.922Z,40.40
2023-04-23T06:35:09.576Z,40.22
2023-04-23T06:37:36.434Z,40.44
2023-04-23T06:40:03.779Z,40.26
2023-04-23T06:42:30.840Z,40.34
2023-04-23T06:44:59.586Z,39.69
2023-04-23T06:47:26.466Z,39.55
2023-04-23T06:49:53.592Z,39.89
2023-04-23T06:52:20.383Z,39.61
2023-04-23T06:54:47.523Z,39.42
2023-04-23T06:57:14.291Z,39.08
2023-04-23T06:59:41.337Z,39.44
2023-04-23T07:02:08.166Z,39.14
2023-04-23T07:04:35.704Z,39.54
2023-04-23T07:07:02.713Z,39.16
2023-04-23T07:09:29.956Z,38.77
2023-04-23T07:11:56.779Z,38.97
2023-04-23T07:14:24.880Z,38.97
2023-04-23T07:16:52.198Z,38.53
2023-04-23T07:19:19.339Z,38.94
2023-04-23T07:21:47.295Z,38.70
2023-04-23T07:24:14.441Z,38.35
2023-04-23T07:26:41.343Z,38.74
2023-04-23T07:29:10.572Z,38.37
2023-04-23T07:31:37.628Z,38.15
2023-04-23T07:34:04.992Z,38.14
2023-04-23T07:36:32.055Z,38.44
2023-04-23T07:38:59.201Z,37.85
2023-04-23T07:41:25.992Z,38.22
2023-04-23T07:43:53.001Z,37.79
2023-04-23T07:46:20.243Z,38.02
2023-04-23T07:48:47.436Z,37.89
2023-04-23T07:51:14.223Z,37.83
2023-04-23T07:53:41.494Z,38.18
2023-04-23T07:56:08.310Z,37.48
2023-04-23T07:58:35.604Z,37.87
2023-04-23T08:01:02.646Z,37.84
2023-04-23T08:03:29.989Z,37.17
2023-04-23T08:05:57.556Z,37.45
2023-04-23T08:08:24.677Z,37.47
2023-04-23T08:10:51.451Z,37.59
2023-04-23T08:13:19.324Z,37.33
2023-04-23T08:15:46.099Z,37.86
2023-04-23T08:18:13.286Z,37.79
2023-04-23T08:20:40.053Z,37.00
2023-04-23T08:23:07.207Z,37.22
2023-04-23T08:25:34.682Z,36.45
2023-04-23T08:28:02.419Z,36.58
2023-04-23T08:30:29.250Z,37.11
2023-04-23T08:32:56.684Z,37.37
2023-04-23T08:35:23.840Z,36.74
2023-04-23T08:37:50.906Z,36.98
2023-04-23T08:40:17.683Z,36.54
2023-04-23T08:42:52.245Z,36.74
2023-04-23T08:45:19.083Z,36.61
2023-04-23T08:47:46.238Z,36.39
2023-04-23T08:50:18.349Z,36.06
2023-04-23T08:52:48.146Z,36.10
2023-04-23T08:55:15.956Z,36.20
2023-04-23T08:57:43.071Z,35.96
2023-04-23T09:00:11.032Z,35.76
2023-04-23T09:02:40.598Z,36.16
2023-04-23T09:05:08.528Z,36.03
2023-04-23T09:07:35.954Z,35.95
2023-04-23T09:10:04.041Z,35.60
2023-04-23T09:12:31.218Z,35.93
2023-04-23T09:14:58.413Z,35.38
2023-04-23T09:17:28.090Z,35.60
2023-04-23T09:19:55.295Z,35.65
2023-04-23T09:22:47.441Z,35.92
2023-04-23T09:25:17.524Z,35.25
2023-04-23T09:27:45.884Z,34.89
2023-04-23T09:30:13.046Z,35.29
2023-04-23T09:32:42.225Z,34.75
2023-04-23T09:35:10.611Z,34.85
2023-04-23T09:37:38.857Z,35.02
2023-04-23T09:40:09.542Z,34.78
2023-04-23T09:42:37.076Z,34.35
2023-04-23T09:45:06.265Z,34.56
2023-04-23T09:47:41.019Z,34.31
2023-04-23T09:50:10.483Z,34.11
2023-04-23T09:52:41.207Z,34.23
2023-04-23T09:55:08.616Z,34.15
2023-04-23T09:57:42.519Z,33.83
2023-04-23T10:00:15.291Z,34.04
2023-04-23T10:02:49.839Z,33.79
2023-04-23T10:05:24.844Z,33.34
2023-04-23T10:07:59.743Z,33.13
2023-04-23T10:10:26.723Z,33.34
2023-04-23T10:12:55.899Z,33.33
2023-04-23T10:15:26.910Z,33.00
2023-04-23T10:17:54.701Z,33.10
2023-04-23T10:20:24.578Z,32.98
2023-04-23T10:22:52.594Z,33.21
2023-04-23T10:25:19.431Z,33.04
2023-04-23T10:27:53.756Z,32.70
2023-04-23T10:30:21.034Z,33.00
2023-04-23T10:32:48.829Z,32.61
2023-04-23T10:35:15.694Z,32.84
2023-04-23T10:37:42.859Z,33.06
2023-04-23T10:40:12.886Z,32.87
2023-04-23T10:42:40.728Z,33.11
2023-04-23T10:45:23.164Z,32.93
2023-04-23T10:47:53.572Z,32.56
2023-04-23T10:50:30.796Z,32.70
2023-04-23T10:52:58.715Z,32.71
2023-04-23T10:55:27.453Z,32.94
2023-04-23T10:58:05.873Z,33.05
2023-04-23T11:00:41.955Z,32.76
2023-04-23T11:03:44.569Z,33.16
2023-04-23T11:06:15.621Z,32.70
2023-04-23T11:08:53.825Z,32.72
2023-04-23T11:11:25.774Z,32.61
2023-04-23T11:13:55.804Z,32.42
2023-04-23T11:16:23.600Z,32.07
2023-04-23T11:19:03.081Z,32.08
2023-04-23T11:21:54.765Z,32.19
2023-04-23T11:24:27.200Z,31.87
2023-04-23T11:26:54.582Z,32.25
2023-04-23T11:29:23.801Z,32.05
2023-04-23T11:32:01.528Z,31.88
2023-04-23T11:34:30.917Z,31.97
2023-04-23T11:36:59.177Z,31.78
2023-04-23T11:39:27.031Z,32.05
2023-04-23T11:41:54.877Z,31.65
2023-04-23T11:44:22.135Z,31.88
2023-04-23T11:46:49.861Z,31.39
2023-04-23T11:49:17.146Z,31.53
2023-04-23T11:51:44.612Z,31.29
2023-04-23T11:54:13.665Z,31.37
2023-04-23T11:56:40.866Z,31.33
2023-04-23T11:59:08.148Z,31.36
2023-04-23T12:01:46.816Z,31.24
2023-04-23T12:04:20.088Z,30.80
2023-04-23T12:06:47.923Z,30.73
2023-04-23T12:09:16.038Z,31.61
2023-04-23T12:11:43.495Z,31.99
2023-04-23T12:14:11.447Z,31.56
2023-04-23T12:16:41.466Z,31.93
2023-04-23T12:19:15.346Z,31.98
2023-04-23T12:21:49.601Z,31.83
2023-04-23T12:24:16.743Z,31.93
2023-04-23T12:26:44.511Z,31.79
2023-04-23T12:29:13.371Z,32.05
2023-04-23T12:31:40.365Z,31.86
2023-04-23T12:34:08.793Z,31.99
2023-04-23T12:36:36.710Z,31.64
2023-04-23T12:39:32.097Z,31.93
2023-04-23T12:42:05.537Z,31.53
2023-04-23T12:44:35.530Z,31.29
2023-04-23T12:47:07.684Z,31.46
2023-04-23T12:49:35.906Z,31.49
2023-04-23T12:52:03.742Z,31.81
2023-04-23T12:54:33.126Z,31.45
2023-04-23T12:57:02.026Z,31.54
2023-04-23T12:59:29.405Z,31.04
2023-04-23T13:01:56.256Z,30.85
2023-04-23T13:04:23.326Z,30.68
2023-04-23T13:06:50.837Z,30.34
2023-04-23T13:09:17.978Z,30.55
2023-04-23T13:11:46.194Z,30.34
2023-04-23T13:14:13.264Z,30.26
2023-04-23T13:16:40.113Z,30.75
2023-04-23T13:19:07.346Z,30.36
2023-04-23T13:21:34.102Z,30.48
2023-04-23T13:24:01.186Z,29.64
2023-04-23T13:26:31.968Z,29.62
2023-04-23T13:28:59.774Z,29.22
2023-04-23T13:31:26.917Z,29.05
2023-04-23T13:33:54.044Z,28.90
2023-04-23T13:36:20.798Z,29.39
2023-04-23T13:38:47.984Z,28.94
2023-04-23T13:41:14.756Z,28.72
2023-04-23T13:43:41.851Z,29.12
2023-04-23T13:46:08.787Z,29.41
2023-04-23T13:48:35.883Z,28.53
2023-04-23T13:51:02.760Z,28.68
2023-04-23T13:53:29.853Z,28.96
2023-04-23T13:55:56.775Z,28.75
2023-04-23T13:58:24.063Z,29.19
2023-04-23T14:00:50.963Z,28.82
2023-04-23T14:03:18.184Z,28.74
2023-04-23T14:05:45.091Z,28.84
2023-04-23T14:08:13.088Z,29.06
2023-04-23T14:10:43.020Z,28.64
2023-04-23T14:13:10.820Z,28.70
2023-04-23T14:15:37.710Z,28.54
2023-04-23T14:18:05.778Z,28.50
2023-04-23T14:20:32.604Z,28.73
2023-04-23T14:23:22.935Z,28.74
2023-04-23T14:25:57.238Z,28.67
2023-04-23T14:28:27.424Z,28.68
2023-04-23T14:30:57.504Z,28.56
2023-04-23T14:33:24.633Z,28.58
2023-04-23T14:35:51.507Z,28.29
2023-04-23T14:38:18.708Z,28.79
2023-04-23T14:40:45.479Z,28.14
2023-04-23T14:43:15.773Z,28.29
2023-04-23T14:45:43.099Z,28.29
2023-04-23T14:48:10.513Z,28.23
2023-04-23T14:50:37.340Z,28.06
2023-04-23T14:53:07.151Z,28.30
2023-04-23T14:55:34.297Z,28.47
2023-04-23T14:58:01.629Z,28.36
2023-04-23T15:00:28.491Z,28.74
2023-04-23T15:02:56.438Z,28.98
2023-04-23T15:05:23.483Z,28.53
2023-04-23T15:07:51.884Z,28.69
2023-04-23T15:10:20.338Z,28.63
2023-04-23T15:12:53.445Z,28.27
2023-04-23T15:15:36.820Z,28.35
2023-04-23T15:18:13.783Z,28.85
2023-04-23T15:20:40.954Z,29.17
2023-04-23T15:23:08.142Z,28.70
2023-04-23T15:25:34.924Z,28.89
2023-04-23T15:28:02.054Z,29.07
2023-04-23T15:30:29.050Z,28.78
2023-04-23T15:32:56.301Z,29.23
2023-04-23T15:35:24.004Z,29.18
2023-04-23T15:37:51.300Z,29.23
2023-04-23T15:40:18.256Z,29.17
2023-04-23T15:42:45.470Z,29.23
2023-04-23T15:45:12.336Z,29.55
2023-04-23T15:47:39.500Z,29.64
2023-04-23T15:50:06.757Z,29.36
2023-04-23T15:52:33.835Z,30.23
2023-04-23T15:55:00.956Z,30.33
2023-04-23T15:57:28.158Z,29.98
2023-04-23T15:59:55.774Z,30.07
2023-04-23T16:02:22.971Z,30.48
2023-04-23T16:04:52.692Z,30.18
2023-04-23T16:07:19.846Z,30.33
2023-04-23T16:09:46.653Z,30.38
2023-04-23T16:12:13.908Z,30.82
2023-04-23T16:14:42.638Z,30.77
2023-04-23T16:17:09.818Z,30.79
2023-04-23T16:19:36.686Z,30.65
2023-04-23T16:22:03.874Z,30.05
2023-04-23T16:24:31.092Z,30.41
2023-04-23T16:26:58.182Z,30.98
2023-04-23T16:29:25.059Z,31.45
2023-04-23T16:31:52.212Z,31.49
2023-04-23T16:34:19.076Z,30.86
2023-04-23T16:36:46.819Z,31.72
2023-04-23T16:39:14.654Z,31.80
2023-04-23T16:41:41.725Z,31.61
2023-04-23T16:44:08.584Z,31.05
2023-04-23T16:46:35.728Z,31.72
2023-04-23T16:49:02.739Z,31.70
2023-04-23T16:51:29.969Z,31.63
2023-04-23T16:53:56.951Z,31.76
2023-04-23T16:56:24.186Z,32.00
2023-04-23T16:58:51.042Z,32.86
2023-04-23T17:01:18.254Z,31.64
2023-04-23T17:03:45.844Z,32.95
2023-04-23T17:06:27.088Z,32.82
2023-04-23T17:08:54.508Z,32.96
2023-04-23T17:11:23.118Z,32.77
2023-04-23T17:13:51.044Z,33.18
2023-04-23T17:16:18.416Z,33.52
2023-04-23T17:18:45.600Z,33.46
2023-04-23T17:21:12.830Z,33.52
2023-04-23T17:23:39.676Z,33.26
2023-04-23T17:26:07.066Z,33.57
2023-04-23T17:28:33.837Z,33.67
2023-04-23T17:31:02.658Z,33.65
2023-04-23T17:33:29.884Z,33.74
2023-04-23T17:35:57.200Z,33.72
2023-04-23T17:38:24.781Z,33.58
2023-04-23T17:40:52.458Z,33.85
2023-04-23T17:43:19.366Z,33.57
2023-04-23T17:45:47.580Z,33.47
2023-04-23T17:48:14.767Z,33.67
2023-04-23T17:50:42.218Z,33.41
2023-04-23T17:53:09.030Z,33.52
2023-04-23T17:55:36.220Z,33.38
2023-04-23T17:58:05.780Z,33.48
2023-04-23T18:00:36.654Z,33.58
2023-04-23T18:03:04.009Z,33.79
2023-04-23T18:05:31.424Z,33.61
2023-04-23T18:07:58.337Z,34.03
2023-04-23T18:10:25.550Z,33.78
2023-04-23T18:12:52.510Z,33.81
2023-04-23T18:15:19.728Z,34.04
2023-04-23T18:17:47.535Z,33.57
2023-04-23T18:20:16.203Z,34.30
2023-04-23T18:22:44.335Z,34.15
2023-04-23T18:25:12.675Z,34.04
2023-04-23T18:27:39.635Z,33.91
2023-04-23T18:30:08.318Z,34.03
2023-04-23T18:32:40.083Z,33.66
2023-04-23T18:35:09.102Z,34.18
2023-04-23T18:37:56.008Z,33.99
2023-04-23T18:40:23.291Z,34.36
2023-04-23T18:42:50.423Z,33.97
2023-04-23T18:45:17.535Z,34.17
2023-04-23T18:47:50.024Z,33.89
2023-04-23T18:50:42.162Z,34.49
2023-04-23T18:53:08.949Z,34.21
2023-04-23T18:55:36.846Z,34.52
2023-04-23T18:58:03.671Z,34.09
2023-04-23T19:00:30.823Z,34.57
2023-04-23T19:02:57.988Z,34.05
2023-04-23T19:05:25.280Z,34.24
2023-04-23T19:07:52.331Z,34.36
2023-04-23T19:10:19.476Z,34.57
2023-04-23T19:12:46.352Z,34.31
2023-04-23T19:15:15.034Z,34.27
2023-04-23T19:17:41.962Z,34.77
2023-04-23T19:20:11.226Z,34.80
2023-04-23T19:22:40.572Z,35.03
2023-04-23T19:25:09.318Z,34.75
2023-04-23T19:27:38.908Z,34.72
2023-04-23T19:30:06.981Z,34.60
2023-04-23T19:32:33.874Z,35.15
2023-04-23T19:35:01.120Z,35.12
2023-04-23T19:37:28.280Z,35.17
2023-04-23T19:39:55.380Z,35.30
2023-04-23T19:42:22.218Z,34.98
2023-04-23T19:44:49.754Z,34.74
2023-04-23T19:47:17.185Z,35.16
2023-04-23T19:49:45.009Z,35.18
2023-04-23T19:52:17.242Z,35.24
2023-04-23T19:54:49.067Z,34.95
2023-04-23T19:57:18.406Z,34.85
2023-04-23T19:59:46.065Z,35.21
2023-04-23T20:02:12.997Z,35.49
2023-04-23T20:04:41.365Z,35.46
2023-04-23T20:07:08.504Z,35.24
2023-04-23T20:09:35.613Z,35.10
2023-04-23T20:12:02.870Z,35.62
2023-04-23T20:14:30.024Z,35.17
2023-04-23T20:16:57.368Z,35.64
2023-04-23T20:19:26.187Z,35.21
2023-04-23T20:21:53.499Z,35.63
2023-04-23T20:24:21.498Z,35.49
2023-04-23T20:26:48.620Z,35.85
2023-04-23T20:29:15.355Z,35.73
2023-04-23T20:31:42.538Z,35.38
2023-04-23T20:34:09.522Z,35.68
2023-04-23T20:36:38.736Z,35.58
2023-04-23T20:39:05.593Z,35.98
2023-04-23T20:41:34.531Z,36.00
2023-04-23T20:44:02.064Z,35.89
2023-04-23T20:46:32.600Z,36.32
2023-04-23T20:49:00.894Z,35.71
2023-04-23T20:51:33.211Z,36.03
2023-04-23T20:54:00.113Z,35.85
2023-04-23T20:56:27.961Z,36.07
2023-04-23T20:58:54.785Z,35.70
2023-04-23T21:01:21.910Z,35.97
2023-04-23T21:03:49.392Z,36.44
2023-04-23T21:06:16.557Z,36.05
2023-04-23T21:08:43.312Z,35.82
2023-04-23T21:11:11.345Z,36.03
2023-04-23T21:13:38.208Z,36.14
2023-04-23T21:16:05.495Z,36.33
2023-04-23T21:18:32.363Z,36.52
2023-04-23T21:20:59.819Z,36.17
2023-04-23T21:23:26.656Z,36.09
2023-04-23T21:25:53.704Z,36.54
2023-04-23T21:28:20.543Z,36.09
2023-04-23T21:30:54.483Z,36.63
2023-04-23T21:33:23.566Z,36.68
2023-04-23T21:35:51.430Z,36.73
2023-04-23T21:38:18.506Z,36.26
2023-04-23T21:40:45.839Z,36.92
2023-04-23T21:43:12.792Z,36.81
2023-04-23T21:45:39.827Z,36.67
2023-04-23T21:48:06.657Z,36.45
2023-04-23T21:50:33.867Z,36.63
2023-04-23T21:53:03.110Z,36.68
2023-04-23T21:55:33.611Z,36.68
2023-04-23T21:58:13.958Z,36.76
2023-04-23T22:00:44.767Z,36.90
2023-04-23T22:03:12.626Z,36.75
2023-04-23T22:05:52.480Z,37.09
2023-04-23T22:08:19.551Z,37.06
2023-04-23T22:10:46.717Z,37.12
2023-04-23T22:13:14.344Z,36.53
2023-04-23T22:15:41.412Z,37.11
2023-04-23T22:18:08.708Z,36.60
2023-04-23T22:20:37.618Z,36.95
2023-04-23T22:23:04.500Z,36.97
2023-04-23T22:25:31.513Z,36.88
2023-04-23T22:27:59.009Z,36.70
2023-04-23T22:30:26.246Z,36.90
2023-04-23T22:32:53.084Z,37.24
2023-04-23T22:35:20.292Z,36.90
2023-04-23T22:37:47.705Z,37.07
2023-04-23T22:40:15.814Z,36.81
2023-04-23T22:42:42.955Z,37.23
2023-04-23T22:45:11.299Z,37.29
2023-04-23T22:47:38.761Z,37.29
2023-04-23T22:50:07.849Z,37.47
2023-04-23T22:52:38.038Z,37.06
2023-04-23T22:55:06.382Z,37.34
2023-04-23T22:57:33.308Z,36.99
2023-04-23T23:00:00.777Z,37.04
2023-04-23T23:02:27.879Z,37.76
2023-04-23T23:04:56.005Z,37.14
2023-04-23T23:07:23.358Z,37.50
2023-04-23T23:09:50.770Z,37.22
2023-04-23T23:12:18.152Z,37.26
2023-04-23T23:14:45.603Z,37.46
2023-04-23T23:17:12.664Z,37.60
2023-04-23T23:19:39.854Z,37.51
2023-04-23T23:22:09.905Z,37.39
2023-04-23T23:24:37.669Z,37.18
2023-04-23T23:27:04.929Z,37.55
2023-04-23T23:29:32.817Z,37.65
2023-04-23T23:31:59.956Z,37.55
2023-04-23T23:34:27.166Z,37.46
2023-04-23T23:36:54.180Z,37.36
2023-04-23T23:39:21.727Z,37.69
2023-04-23T23:41:48.622Z,37.59
2023-04-23T23:44:16.595Z,37.68
2023-04-23T23:46:43.542Z,37.20
2023-04-23T23:49:11.150Z,37.42
2023-04-23T23:51:38.622Z,37.33
2023-04-23T23:54:06.281Z,37.31
2023-04-23T23:56:33.128Z,37.43
2023-04-23T23:59:00.149Z,37.80
